• Join FlightAware (Why Join?)
  • Login
  • US Flag 
04:38PM EDT


 

Airport Tracker/Info


-or-


 

Live Flight TrackerFlight Track Log ✈ FLG4149 ✈ 15-May-2013 ✈ KLEX - KDCA

Flight Track Log - Related Links

Times and Time Zones

All times are in EDT time to prevent confusion due to time zone crossing. See the FLG4149 flight status page for this flight to view local times or setup timezone preferences in your user account.

Time Position Orientation Groundspeed Altitude Reporting Facility
EDT Latitude Longitude Course Direction KTS MPH feet Rate Location/Type
07:06AM 37.9936 -84.6336 82° East 167 192 3,000  Level Indianapolis Center
07:07AM 37.9647 -84.5575 116° Southeast 269 310 4,900 2,400 Climbing Indianapolis Center
07:08AM 38.0758 -84.1601 81° East  Level FlightAware Approximate
07:08AM 37.9822 -84.4531 78° East 291 335 8,000  Level Indianapolis Center
07:09AM 38.0966 -84.0139 79° East  Level FlightAware Approximate
07:09AM 37.9983 -84.3461 79° East 304 350 10,000  Level Indianapolis Center
07:10AM 38.1192 -83.8680 78° East  Level FlightAware Approximate
07:10AM 38.0156 -84.2253 80° East 340 391 11,400  Level Indianapolis Center
07:11AM 38.1402 -83.7218 82° East  Level FlightAware Approximate
07:11AM 38.0347 -84.0931 80° East 373 429 13,200  Level Indianapolis Center
07:12AM 38.0536 -83.9594 80° East 381 438 14,900 1,620 Climbing Indianapolis Center
07:13AM 38.0744 -83.8192 79° East 396 456 16,600 1,620 Climbing Indianapolis Center
07:14AM 38.0939 -83.6806 80° East 397 457 18,200 1,440 Climbing Indianapolis Center
07:15AM 38.1125 -83.5419 80° East 398 458 19,600 1,320 Climbing Indianapolis Center
07:16AM 38.1333 -83.3981 80° East 409 471 20,900 1,200 Climbing Indianapolis Center
07:17AM 38.1531 -83.2531 80° East 414 476 22,100 1,200 Climbing Indianapolis Center
07:18AM 38.1686 -83.0781 83° East 424 488 23,400 1,140 Climbing Indianapolis Center
07:19AM 38.1750 -82.9264 87° East 427 491 24,500 1,080 Climbing Indianapolis Center
07:20AM 38.1817 -82.7758 87° East 427 491 25,600 1,020 Climbing Indianapolis Center
07:21AM 38.1886 -82.6250 87° East 425 489 26,700 660 Climbing Indianapolis Center
07:22AM 38.1928 -82.4889 88° East 428 493 27,000 120 Climbing Indianapolis Center
07:23AM 38.1994 -82.3275 87° East 455 524 27,000  Level Indianapolis Center
07:25AM 38.2075 -82.1306 87° East 466 536 27,000  Level Indianapolis Center
07:26AM 38.2142 -81.9633 87° East 475 547 27,000  Level Indianapolis Center
07:27AM 38.2197 -81.7972 88° East 473 544 27,000  Level Indianapolis Center
07:28AM 38.2253 -81.6317 88° East 474 545 27,000  Level Indianapolis Center
07:29AM 38.2303 -81.4653 88° East 476 548 27,000  Level Indianapolis Center
07:30AM 38.2356 -81.3000 88° East 473 544 27,000  Level Indianapolis Center
07:31AM 38.2406 -81.1339 88° East 472 543 27,000  Level Indianapolis Center
07:32AM 38.2453 -80.9325 88° East 476 548 27,000  Level Indianapolis Center
07:33AM 38.2489 -80.7794 88° East 474 545 27,000  Level Washington Center
07:34AM 38.2553 -80.6264 87° East 474 545 27,000  Level Washington Center
07:35AM 38.2578 -80.4653 89° East 474 545 27,000  Level Washington Center
07:36AM 38.2622 -80.3017 88° East 469 540 27,000  Level Washington Center
07:37AM 38.2664 -80.1378 88° East 463 533 27,000  Level Washington Center
07:38AM 38.2703 -79.9769 88° East 458 527 27,000  Level Washington Center
07:39AM 38.2728 -79.7944 89° East 458 527 27,000 -240 Level Washington Center
07:40AM 38.3072 -79.6428 74° East 448 516 26,600 -540 Descending Washington Center
07:41AM 38.3578 -79.5028 65° Northeast 443 510 26,000 -300 Descending Washington Center
07:42AM 38.4039 -79.3594 68° East 438 504 26,000  Level Washington Center
07:43AM 38.4372 -79.2283 72° East 432 497 26,000  Level Washington Center
07:44AM 38.4669 -79.0733 76° East 432 497 26,000 -660 Level Washington Center
07:45AM 38.4942 -78.9181 77° East 438 504 24,800 -1,260 Descending Washington Center
07:46AM 38.5150 -78.7678 80° East 438 504 23,500 -1,380 Descending Washington Center
07:47AM 38.5375 -78.6203 79° East 433 498 22,100 -1,440 Descending Washington Center
07:48AM 38.5600 -78.4750 79° East 427 491 20,700 -1,560 Descending Washington Center
07:49AM 38.5839 -78.3353 78° East 416 479 19,000 -1,920 Descending Washington Center
07:50AM 38.6119 -78.2061 74° East 394 453 17,000 -1,980 Descending Washington Center
07:51AM 38.6500 -78.0825 68° East 376 433 15,200 -1,380 Descending Washington Center
07:52AM 38.6856 -77.9747 67° East 355 409 14,300 -1,080 Descending Washington Center
07:53AM 38.7231 -77.8586 67° East 323 372 13,100 -1,200 Descending Washington Center
07:54AM 38.7750 -77.7697 53° Northeast 309 356 12,000 -1,080 Descending Washington Center
07:55AM 38.8178 -77.7044 50° Northeast 303 349 11,000 -1,440 Descending Washington Center
07:55AM 38.8667 -77.6167 54° Northeast 301 346 9,600 -1,560 Descending Potomac TRACON
07:56AM 38.9333 -77.5500 38° Northeast 284 327 8,300 -1,140 Descending Potomac TRACON
07:57AM 38.9667 -77.4667 63° Northeast 271 312 7,400 -1,080 Descending Potomac TRACON
07:58AM 38.9833 -77.3833 76° East 248 285 6,300 -1,320 Descending Potomac TRACON
07:59AM 39.0000 -77.3000 76° East 252 290 4,900 -1,320 Descending Potomac TRACON
08:00AM 38.9833 -77.2167 104° East 248 285 3,700 -1,200 Descending Potomac TRACON